Bentley, North Dakota
Current Conditions -  °F | °C
As of 6:15 AM on Friday 28 Nov 2014 (Local Time) from KD57 Reporting Station
Scattered Clouds Scattered Clouds  
Wind Chill:   Ceiling: Unl
Heat Index: 14°   Visibility: 10mi
Dew Point:   Wind: 7mph
Humidity: 79%   Direction: 140°SE
Pressure: 29.72"   Gusts: NA
Location:  46.3715°N, 101.864°W
Report Text: KD57 281315Z AUTO 14006KT 10SM SCT110 M10/M13 A2972 RMK AO2 TSNO
Loading
Personal Weather Stations






























Interactive Weather Map New forecast layout! Learn more

10-Day Weather Forecast

Advertisements
Track Severe Weather on mobile